sensor_id;sensor_type;location;lat;lon;timestamp;temperature;humidity
71142;DHT22;58808;59.366;17.970;2022-10-22T00:01:16;8.30;99.90
71142;DHT22;58808;59.366;17.970;2022-10-22T00:03:42;8.40;99.90
71142;DHT22;58808;59.366;17.970;2022-10-22T00:06:08;8.40;99.90
71142;DHT22;58808;59.366;17.970;2022-10-22T00:08:33;8.40;99.90
71142;DHT22;58808;59.366;17.970;2022-10-22T00:11:11;8.40;99.90
71142;DHT22;58808;59.366;17.970;2022-10-22T00:13:37;8.40;99.90
71142;DHT22;58808;59.366;17.970;2022-10-22T00:16:02;8.40;99.90
71142;DHT22;58808;59.366;17.970;2022-10-22T00:18:28;8.30;99.90
71142;DHT22;58808;59.366;17.970;2022-10-22T00:20:54;8.30;99.90
71142;DHT22;58808;59.366;17.970;2022-10-22T00:23:20;8.20;99.90
71142;DHT22;58808;59.366;17.970;2022-10-22T00:25:45;8.20;99.90
71142;DHT22;58808;59.366;17.970;2022-10-22T00:28:11;8.30;99.90
71142;DHT22;58808;59.366;17.970;2022-10-22T00:30:36;8.30;99.90
71142;DHT22;58808;59.366;17.970;2022-10-22T00:33:02;8.30;99.90
71142;DHT22;58808;59.366;17.970;2022-10-22T00:35:28;8.20;99.90
71142;DHT22;58808;59.366;17.970;2022-10-22T00:37:53;8.20;99.90
71142;DHT22;58808;59.366;17.970;2022-10-22T00:40:19;8.20;99.90
71142;DHT22;58808;59.366;17.970;2022-10-22T00:42:45;8.20;99.90
71142;DHT22;58808;59.366;17.970;2022-10-22T00:47:43;8.20;99.90
71142;DHT22;58808;59.366;17.970;2022-10-22T00:52:51;8.30;99.90
71142;DHT22;58808;59.366;17.970;2022-10-22T00:55:17;8.30;99.90
71142;DHT22;58808;59.366;17.970;2022-10-22T00:57:43;8.30;99.90
71142;DHT22;58808;59.366;17.970;2022-10-22T01:00:10;8.30;99.90
71142;DHT22;58808;59.366;17.970;2022-10-22T01:02:36;8.30;99.90
71142;DHT22;58808;59.366;17.970;2022-10-22T01:05:02;8.30;99.90
71142;DHT22;58808;59.366;17.970;2022-10-22T01:07:27;8.30;99.90
71142;DHT22;58808;59.366;17.970;2022-10-22T01:12:40;8.30;99.90
71142;DHT22;58808;59.366;17.970;2022-10-22T01:29:06;8.30;99.90
71142;DHT22;58808;59.366;17.970;2022-10-22T01:31:53;8.30;99.90
71142;DHT22;58808;59.366;17.970;2022-10-22T01:34:22;8.30;99.90
71142;DHT22;58808;59.366;17.970;2022-10-22T01:36:50;8.30;99.90
71142;DHT22;58808;59.366;17.970;2022-10-22T01:39:17;8.20;99.90
71142;DHT22;58808;59.366;17.970;2022-10-22T01:41:44;8.10;99.90
71142;DHT22;58808;59.366;17.970;2022-10-22T01:44:42;8.10;99.90
71142;DHT22;58808;59.366;17.970;2022-10-22T01:47:38;8.20;99.90
71142;DHT22;58808;59.366;17.970;2022-10-22T01:52:53;8.10;99.90
71142;DHT22;58808;59.366;17.970;2022-10-22T02:01:12;8.00;99.90
71142;DHT22;58808;59.366;17.970;2022-10-22T02:03:46;8.00;99.90
71142;DHT22;58808;59.366;17.970;2022-10-22T02:06:17;7.90;99.90
71142;DHT22;58808;59.366;17.970;2022-10-22T02:08:45;7.90;99.90
71142;DHT22;58808;59.366;17.970;2022-10-22T02:11:12;7.90;99.90
71142;DHT22;58808;59.366;17.970;2022-10-22T02:13:43;7.90;99.90
71142;DHT22;58808;59.366;17.970;2022-10-22T02:16:33;7.90;99.90
71142;DHT22;58808;59.366;17.970;2022-10-22T02:19:03;7.90;99.90
71142;DHT22;58808;59.366;17.970;2022-10-22T02:21:30;7.90;99.90
71142;DHT22;58808;59.366;17.970;2022-10-22T02:23:56;7.90;99.90
71142;DHT22;58808;59.366;17.970;2022-10-22T02:26:39;7.90;99.90
71142;DHT22;58808;59.366;17.970;2022-10-22T02:29:14;7.90;99.90
71142;DHT22;58808;59.366;17.970;2022-10-22T02:31:45;7.90;99.90
71142;DHT22;58808;59.366;17.970;2022-10-22T02:34:15;7.90;99.90
71142;DHT22;58808;59.366;17.970;2022-10-22T02:36:44;7.90;99.90
71142;DHT22;58808;59.366;17.970;2022-10-22T02:39:12;7.90;99.90
71142;DHT22;58808;59.366;17.970;2022-10-22T02:41:38;7.80;99.90
71142;DHT22;58808;59.366;17.970;2022-10-22T02:44:09;7.90;99.90
71142;DHT22;58808;59.366;17.970;2022-10-22T02:46:39;7.90;99.90
71142;DHT22;58808;59.366;17.970;2022-10-22T02:49:06;7.90;99.90
71142;DHT22;58808;59.366;17.970;2022-10-22T02:51:32;7.90;99.90
71142;DHT22;58808;59.366;17.970;2022-10-22T02:53:58;7.90;99.90
71142;DHT22;58808;59.366;17.970;2022-10-22T02:56:23;7.90;99.90
71142;DHT22;58808;59.366;17.970;2022-10-22T02:58:49;7.90;99.90
71142;DHT22;58808;59.366;17.970;2022-10-22T03:01:14;7.90;99.90
71142;DHT22;58808;59.366;17.970;2022-10-22T03:03:40;7.90;99.90
71142;DHT22;58808;59.366;17.970;2022-10-22T03:06:06;7.90;99.90
71142;DHT22;58808;59.366;17.970;2022-10-22T03:08:32;7.90;99.90
71142;DHT22;58808;59.366;17.970;2022-10-22T03:10:57;7.90;99.90
71142;DHT22;58808;59.366;17.970;2022-10-22T03:13:23;7.90;99.90
71142;DHT22;58808;59.366;17.970;2022-10-22T03:15:49;7.90;99.90
71142;DHT22;58808;59.366;17.970;2022-10-22T03:18:15;7.90;99.90
71142;DHT22;58808;59.366;17.970;2022-10-22T03:20:41;8.00;99.90
71142;DHT22;58808;59.366;17.970;2022-10-22T03:23:07;8.00;99.90
71142;DHT22;58808;59.366;17.970;2022-10-22T03:25:33;8.00;99.90
71142;DHT22;58808;59.366;17.970;2022-10-22T03:28:02;8.00;99.90
71142;DHT22;58808;59.366;17.970;2022-10-22T03:30:29;8.00;99.90
71142;DHT22;58808;59.366;17.970;2022-10-22T03:32:55;8.00;99.90
71142;DHT22;58808;59.366;17.970;2022-10-22T03:35:21;8.00;99.90
71142;DHT22;58808;59.366;17.970;2022-10-22T03:37:46;8.00;99.90
71142;DHT22;58808;59.366;17.970;2022-10-22T03:40:12;8.00;99.90
71142;DHT22;58808;59.366;17.970;2022-10-22T03:42:39;8.00;99.90
71142;DHT22;58808;59.366;17.970;2022-10-22T03:45:06;8.00;99.90
71142;DHT22;58808;59.366;17.970;2022-10-22T03:47:32;8.00;99.90
71142;DHT22;58808;59.366;17.970;2022-10-22T03:49:57;8.00;99.90
71142;DHT22;58808;59.366;17.970;2022-10-22T03:52:23;7.90;99.90
71142;DHT22;58808;59.366;17.970;2022-10-22T03:54:49;7.90;99.90
71142;DHT22;58808;59.366;17.970;2022-10-22T03:57:14;7.90;99.90
71142;DHT22;58808;59.366;17.970;2022-10-22T03:59:42;7.90;99.90
71142;DHT22;58808;59.366;17.970;2022-10-22T04:02:09;8.00;99.90
71142;DHT22;58808;59.366;17.970;2022-10-22T04:04:36;8.00;99.90
71142;DHT22;58808;59.366;17.970;2022-10-22T04:07:03;8.00;99.90
71142;DHT22;58808;59.366;17.970;2022-10-22T04:09:32;8.00;99.90
71142;DHT22;58808;59.366;17.970;2022-10-22T04:11:58;8.10;99.90
71142;DHT22;58808;59.366;17.970;2022-10-22T04:14:24;8.00;99.90
71142;DHT22;58808;59.366;17.970;2022-10-22T04:16:50;8.10;99.90
71142;DHT22;58808;59.366;17.970;2022-10-22T04:19:16;8.00;99.90
71142;DHT22;58808;59.366;17.970;2022-10-22T04:21:42;8.10;99.90
71142;DHT22;58808;59.366;17.970;2022-10-22T04:24:08;8.10;99.90
71142;DHT22;58808;59.366;17.970;2022-10-22T04:26:34;8.10;99.90
71142;DHT22;58808;59.366;17.970;2022-10-22T04:28:59;8.10;99.90
71142;DHT22;58808;59.366;17.970;2022-10-22T04:31:25;8.10;99.90
71142;DHT22;58808;59.366;17.970;2022-10-22T04:33:56;8.10;99.90
71142;DHT22;58808;59.366;17.970;2022-10-22T04:36:23;8.10;99.90
71142;DHT22;58808;59.366;17.970;2022-10-22T04:38:58;8.10;99.90
71142;DHT22;58808;59.366;17.970;2022-10-22T04:41:27;8.10;99.90
71142;DHT22;58808;59.366;17.970;2022-10-22T04:43:55;8.10;99.90
71142;DHT22;58808;59.366;17.970;2022-10-22T04:46:21;8.10;99.90
71142;DHT22;58808;59.366;17.970;2022-10-22T04:48:47;8.20;99.90
71142;DHT22;58808;59.366;17.970;2022-10-22T04:51:15;8.10;99.90
71142;DHT22;58808;59.366;17.970;2022-10-22T04:53:42;8.10;99.90
71142;DHT22;58808;59.366;17.970;2022-10-22T04:58:47;8.10;99.90
71142;DHT22;58808;59.366;17.970;2022-10-22T05:01:24;8.10;99.90
71142;DHT22;58808;59.366;17.970;2022-10-22T05:03:52;8.20;99.90
71142;DHT22;58808;59.366;17.970;2022-10-22T05:06:18;8.20;99.90
71142;DHT22;58808;59.366;17.970;2022-10-22T05:08:46;8.20;99.90
71142;DHT22;58808;59.366;17.970;2022-10-22T05:11:16;8.20;99.90
71142;DHT22;58808;59.366;17.970;2022-10-22T05:13:42;8.20;99.90
71142;DHT22;58808;59.366;17.970;2022-10-22T05:16:08;8.30;99.90
71142;DHT22;58808;59.366;17.970;2022-10-22T05:18:38;8.30;99.90
71142;DHT22;58808;59.366;17.970;2022-10-22T05:21:11;8.30;99.90
71142;DHT22;58808;59.366;17.970;2022-10-22T05:23:38;8.30;99.90
71142;DHT22;58808;59.366;17.970;2022-10-22T05:26:05;8.30;99.90
71142;DHT22;58808;59.366;17.970;2022-10-22T05:28:32;8.30;99.90
71142;DHT22;58808;59.366;17.970;2022-10-22T05:30:59;8.30;99.90
71142;DHT22;58808;59.366;17.970;2022-10-22T05:33:26;8.40;99.90
71142;DHT22;58808;59.366;17.970;2022-10-22T05:35:52;8.40;99.90
71142;DHT22;58808;59.366;17.970;2022-10-22T05:38:18;8.40;99.90
71142;DHT22;58808;59.366;17.970;2022-10-22T05:40:45;8.40;99.90
71142;DHT22;58808;59.366;17.970;2022-10-22T05:43:11;8.40;99.90
71142;DHT22;58808;59.366;17.970;2022-10-22T05:45:37;8.40;99.90
71142;DHT22;58808;59.366;17.970;2022-10-22T05:48:03;8.40;99.90
71142;DHT22;58808;59.366;17.970;2022-10-22T05:50:30;8.40;99.90
71142;DHT22;58808;59.366;17.970;2022-10-22T05:52:56;8.40;99.90
71142;DHT22;58808;59.366;17.970;2022-10-22T05:55:21;8.40;99.90
71142;DHT22;58808;59.366;17.970;2022-10-22T05:57:47;8.50;99.90
71142;DHT22;58808;59.366;17.970;2022-10-22T06:00:15;8.50;99.90
71142;DHT22;58808;59.366;17.970;2022-10-22T06:02:41;8.50;99.90
71142;DHT22;58808;59.366;17.970;2022-10-22T06:05:06;8.40;99.90
71142;DHT22;58808;59.366;17.970;2022-10-22T06:07:32;8.40;99.90
71142;DHT22;58808;59.366;17.970;2022-10-22T06:09:58;8.40;99.90
71142;DHT22;58808;59.366;17.970;2022-10-22T06:12:24;8.50;99.90
71142;DHT22;58808;59.366;17.970;2022-10-22T06:14:50;8.50;99.90
71142;DHT22;58808;59.366;17.970;2022-10-22T06:17:16;8.50;99.90
71142;DHT22;58808;59.366;17.970;2022-10-22T06:19:43;8.50;99.90
71142;DHT22;58808;59.366;17.970;2022-10-22T06:22:09;8.50;99.90
71142;DHT22;58808;59.366;17.970;2022-10-22T06:24:35;8.50;99.90
71142;DHT22;58808;59.366;17.970;2022-10-22T06:27:00;8.50;99.90
71142;DHT22;58808;59.366;17.970;2022-10-22T06:29:26;8.50;99.90
71142;DHT22;58808;59.366;17.970;2022-10-22T06:31:52;8.50;99.90
71142;DHT22;58808;59.366;17.970;2022-10-22T06:34:18;8.50;99.90
71142;DHT22;58808;59.366;17.970;2022-10-22T06:36:45;8.50;99.90
71142;DHT22;58808;59.366;17.970;2022-10-22T06:39:13;8.60;99.90
71142;DHT22;58808;59.366;17.970;2022-10-22T06:41:40;8.60;99.90
71142;DHT22;58808;59.366;17.970;2022-10-22T06:44:06;8.60;99.90
71142;DHT22;58808;59.366;17.970;2022-10-22T06:46:32;8.60;99.90
71142;DHT22;58808;59.366;17.970;2022-10-22T06:49:01;8.60;99.90
71142;DHT22;58808;59.366;17.970;2022-10-22T06:51:30;8.60;99.90
71142;DHT22;58808;59.366;17.970;2022-10-22T06:53:57;8.60;99.90
71142;DHT22;58808;59.366;17.970;2022-10-22T06:56:24;8.60;99.90
71142;DHT22;58808;59.366;17.970;2022-10-22T06:58:51;8.70;99.90
71142;DHT22;58808;59.366;17.970;2022-10-22T07:01:20;8.70;99.90
71142;DHT22;58808;59.366;17.970;2022-10-22T07:03:48;8.70;99.90
71142;DHT22;58808;59.366;17.970;2022-10-22T07:06:14;8.70;99.90
71142;DHT22;58808;59.366;17.970;2022-10-22T07:08:41;8.70;99.90
71142;DHT22;58808;59.366;17.970;2022-10-22T07:11:10;8.70;99.90
71142;DHT22;58808;59.366;17.970;2022-10-22T07:13:37;8.70;99.90
71142;DHT22;58808;59.366;17.970;2022-10-22T07:16:03;8.70;99.90
71142;DHT22;58808;59.366;17.970;2022-10-22T07:18:30;8.70;99.90
71142;DHT22;58808;59.366;17.970;2022-10-22T07:20:56;8.70;99.90
71142;DHT22;58808;59.366;17.970;2022-10-22T07:23:21;8.80;99.90
71142;DHT22;58808;59.366;17.970;2022-10-22T07:25:47;8.80;99.90
71142;DHT22;58808;59.366;17.970;2022-10-22T07:28:16;8.80;99.90
71142;DHT22;58808;59.366;17.970;2022-10-22T07:30:41;8.80;99.90
71142;DHT22;58808;59.366;17.970;2022-10-22T07:33:08;8.80;99.90
71142;DHT22;58808;59.366;17.970;2022-10-22T07:35:33;8.80;99.90
71142;DHT22;58808;59.366;17.970;2022-10-22T07:38:00;8.80;99.90
71142;DHT22;58808;59.366;17.970;2022-10-22T07:40:26;8.90;99.90
71142;DHT22;58808;59.366;17.970;2022-10-22T07:42:52;8.90;99.90
71142;DHT22;58808;59.366;17.970;2022-10-22T07:45:17;8.90;99.90
71142;DHT22;58808;59.366;17.970;2022-10-22T07:47:43;8.90;99.90
71142;DHT22;58808;59.366;17.970;2022-10-22T07:50:09;8.90;99.90
71142;DHT22;58808;59.366;17.970;2022-10-22T07:52:35;8.90;99.90
71142;DHT22;58808;59.366;17.970;2022-10-22T07:55:00;9.00;99.90
71142;DHT22;58808;59.366;17.970;2022-10-22T07:57:26;9.00;99.90
71142;DHT22;58808;59.366;17.970;2022-10-22T07:59:51;9.00;99.90
71142;DHT22;58808;59.366;17.970;2022-10-22T08:02:17;9.00;99.90
71142;DHT22;58808;59.366;17.970;2022-10-22T08:04:43;9.00;99.90
71142;DHT22;58808;59.366;17.970;2022-10-22T08:07:08;9.00;99.90
71142;DHT22;58808;59.366;17.970;2022-10-22T08:09:34;9.00;99.90
71142;DHT22;58808;59.366;17.970;2022-10-22T08:12:00;9.00;99.90
71142;DHT22;58808;59.366;17.970;2022-10-22T08:14:25;9.00;99.90
71142;DHT22;58808;59.366;17.970;2022-10-22T08:16:52;9.00;99.90
71142;DHT22;58808;59.366;17.970;2022-10-22T08:19:17;9.00;99.90
71142;DHT22;58808;59.366;17.970;2022-10-22T08:21:46;9.00;99.90
71142;DHT22;58808;59.366;17.970;2022-10-22T08:24:12;9.00;99.90
71142;DHT22;58808;59.366;17.970;2022-10-22T08:26:39;9.00;99.90
71142;DHT22;58808;59.366;17.970;2022-10-22T08:29:05;9.00;99.90
71142;DHT22;58808;59.366;17.970;2022-10-22T08:31:31;9.00;99.90
71142;DHT22;58808;59.366;17.970;2022-10-22T08:33:57;9.00;99.90
71142;DHT22;58808;59.366;17.970;2022-10-22T08:36:23;9.00;99.90
71142;DHT22;58808;59.366;17.970;2022-10-22T08:38:48;9.00;99.90
71142;DHT22;58808;59.366;17.970;2022-10-22T08:41:19;9.00;99.90
71142;DHT22;58808;59.366;17.970;2022-10-22T08:46:32;9.10;99.90
71142;DHT22;58808;59.366;17.970;2022-10-22T08:49:04;9.10;99.90
71142;DHT22;58808;59.366;17.970;2022-10-22T08:51:35;9.10;99.90
71142;DHT22;58808;59.366;17.970;2022-10-22T09:07:47;9.20;99.90
71142;DHT22;58808;59.366;17.970;2022-10-22T09:10:16;9.20;99.90
71142;DHT22;58808;59.366;17.970;2022-10-22T09:12:43;9.20;99.90
71142;DHT22;58808;59.366;17.970;2022-10-22T09:15:13;9.30;99.90
71142;DHT22;58808;59.366;17.970;2022-10-22T09:20:44;9.30;99.90
71142;DHT22;58808;59.366;17.970;2022-10-22T09:23:29;9.30;99.90
71142;DHT22;58808;59.366;17.970;2022-10-22T09:25:58;9.30;99.90
71142;DHT22;58808;59.366;17.970;2022-10-22T09:28:24;9.30;99.90
71142;DHT22;58808;59.366;17.970;2022-10-22T09:30:50;9.30;99.90
71142;DHT22;58808;59.366;17.970;2022-10-22T09:33:25;9.30;99.90
71142;DHT22;58808;59.366;17.970;2022-10-22T09:35:54;9.30;99.90
71142;DHT22;58808;59.366;17.970;2022-10-22T09:38:24;9.40;99.90
71142;DHT22;58808;59.366;17.970;2022-10-22T09:40:52;9.40;99.90
71142;DHT22;58808;59.366;17.970;2022-10-22T09:43:18;9.40;99.90
71142;DHT22;58808;59.366;17.970;2022-10-22T09:45:45;9.40;99.90
71142;DHT22;58808;59.366;17.970;2022-10-22T09:48:21;9.50;99.90
71142;DHT22;58808;59.366;17.970;2022-10-22T09:53:36;9.50;99.90
71142;DHT22;58808;59.366;17.970;2022-10-22T09:56:08;9.50;99.90
71142;DHT22;58808;59.366;17.970;2022-10-22T09:58:45;9.50;99.90
71142;DHT22;58808;59.366;17.970;2022-10-22T10:01:35;9.50;99.90
71142;DHT22;58808;59.366;17.970;2022-10-22T10:04:13;9.60;99.90
71142;DHT22;58808;59.366;17.970;2022-10-22T10:06:42;9.60;99.90
71142;DHT22;58808;59.366;17.970;2022-10-22T10:09:17;9.60;99.90
71142;DHT22;58808;59.366;17.970;2022-10-22T10:17:27;9.60;99.90
71142;DHT22;58808;59.366;17.970;2022-10-22T10:20:07;9.60;99.90
71142;DHT22;58808;59.366;17.970;2022-10-22T10:28:51;9.60;99.90
71142;DHT22;58808;59.366;17.970;2022-10-22T10:45:36;9.50;99.90
71142;DHT22;58808;59.366;17.970;2022-10-22T10:53:20;9.50;99.90
71142;DHT22;58808;59.366;17.970;2022-10-22T11:01:41;9.50;99.90
71142;DHT22;58808;59.366;17.970;2022-10-22T11:07:21;9.50;99.90
71142;DHT22;58808;59.366;17.970;2022-10-22T11:09:53;9.60;99.90
71142;DHT22;58808;59.366;17.970;2022-10-22T11:12:32;9.60;99.90
71142;DHT22;58808;59.366;17.970;2022-10-22T11:17:37;9.60;99.90
71142;DHT22;58808;59.366;17.970;2022-10-22T11:23:08;9.60;99.90
71142;DHT22;58808;59.366;17.970;2022-10-22T11:25:47;9.70;99.90
71142;DHT22;58808;59.366;17.970;2022-10-22T11:30:56;9.70;99.90
71142;DHT22;58808;59.366;17.970;2022-10-22T11:33:26;9.70;99.90
71142;DHT22;58808;59.366;17.970;2022-10-22T11:35:53;9.70;99.90
71142;DHT22;58808;59.366;17.970;2022-10-22T11:38:23;9.70;99.90
71142;DHT22;58808;59.366;17.970;2022-10-22T11:41:00;9.70;99.90
71142;DHT22;58808;59.366;17.970;2022-10-22T11:43:30;9.70;99.90
71142;DHT22;58808;59.366;17.970;2022-10-22T11:46:02;9.70;99.90
71142;DHT22;58808;59.366;17.970;2022-10-22T11:48:35;9.70;99.90
71142;DHT22;58808;59.366;17.970;2022-10-22T11:51:02;9.70;99.90
71142;DHT22;58808;59.366;17.970;2022-10-22T11:53:37;9.70;99.90
71142;DHT22;58808;59.366;17.970;2022-10-22T12:11:21;9.70;99.90
71142;DHT22;58808;59.366;17.970;2022-10-22T12:14:36;9.80;99.90
71142;DHT22;58808;59.366;17.970;2022-10-22T12:21:37;9.70;99.90
71142;DHT22;58808;59.366;17.970;2022-10-22T12:24:04;9.70;99.90
71142;DHT22;58808;59.366;17.970;2022-10-22T12:26:32;9.70;99.90
71142;DHT22;58808;59.366;17.970;2022-10-22T12:29:04;9.70;99.90
71142;DHT22;58808;59.366;17.970;2022-10-22T12:31:38;9.80;99.90
71142;DHT22;58808;59.366;17.970;2022-10-22T12:34:05;9.80;99.90
71142;DHT22;58808;59.366;17.970;2022-10-22T12:36:35;9.80;99.90
71142;DHT22;58808;59.366;17.970;2022-10-22T12:39:03;9.80;99.90
71142;DHT22;58808;59.366;17.970;2022-10-22T12:41:35;9.80;99.90
71142;DHT22;58808;59.366;17.970;2022-10-22T12:44:02;9.80;99.90
71142;DHT22;58808;59.366;17.970;2022-10-22T12:46:30;9.80;99.90
71142;DHT22;58808;59.366;17.970;2022-10-22T12:49:02;9.80;99.90
71142;DHT22;58808;59.366;17.970;2022-10-22T12:51:29;9.80;99.90
71142;DHT22;58808;59.366;17.970;2022-10-22T12:53:57;9.80;99.90
71142;DHT22;58808;59.366;17.970;2022-10-22T12:56:31;9.80;99.90
71142;DHT22;58808;59.366;17.970;2022-10-22T12:59:19;9.80;99.90
71142;DHT22;58808;59.366;17.970;2022-10-22T13:01:45;9.80;99.90
71142;DHT22;58808;59.366;17.970;2022-10-22T13:06:46;9.90;99.90
71142;DHT22;58808;59.366;17.970;2022-10-22T13:09:18;9.90;99.90
71142;DHT22;58808;59.366;17.970;2022-10-22T13:11:55;9.90;99.90
71142;DHT22;58808;59.366;17.970;2022-10-22T13:14:29;9.90;99.90
71142;DHT22;58808;59.366;17.970;2022-10-22T13:17:15;9.90;99.90
71142;DHT22;58808;59.366;17.970;2022-10-22T13:19:48;9.90;99.90
71142;DHT22;58808;59.366;17.970;2022-10-22T13:23:16;9.90;99.90
71142;DHT22;58808;59.366;17.970;2022-10-22T13:27:56;9.90;99.90
71142;DHT22;58808;59.366;17.970;2022-10-22T13:30:32;9.90;99.90
71142;DHT22;58808;59.366;17.970;2022-10-22T13:33:06;9.90;99.90
71142;DHT22;58808;59.366;17.970;2022-10-22T13:35:35;9.90;99.90
71142;DHT22;58808;59.366;17.970;2022-10-22T13:38:02;9.90;99.90
71142;DHT22;58808;59.366;17.970;2022-10-22T13:40:28;9.90;99.90
71142;DHT22;58808;59.366;17.970;2022-10-22T13:42:53;9.90;99.90
71142;DHT22;58808;59.366;17.970;2022-10-22T13:45:19;9.90;99.90
71142;DHT22;58808;59.366;17.970;2022-10-22T13:47:50;9.90;99.90
71142;DHT22;58808;59.366;17.970;2022-10-22T13:50:19;9.90;99.90
71142;DHT22;58808;59.366;17.970;2022-10-22T13:52:49;9.90;99.90
71142;DHT22;58808;59.366;17.970;2022-10-22T13:55:28;9.90;99.90
71142;DHT22;58808;59.366;17.970;2022-10-22T13:58:00;9.90;99.90
71142;DHT22;58808;59.366;17.970;2022-10-22T14:00:28;10.00;99.90
71142;DHT22;58808;59.366;17.970;2022-10-22T14:02:56;10.00;99.90
71142;DHT22;58808;59.366;17.970;2022-10-22T14:05:23;9.90;99.90
71142;DHT22;58808;59.366;17.970;2022-10-22T14:07:49;9.90;99.90
71142;DHT22;58808;59.366;17.970;2022-10-22T14:10:21;9.90;99.90
71142;DHT22;58808;59.366;17.970;2022-10-22T14:12:47;9.90;99.90
71142;DHT22;58808;59.366;17.970;2022-10-22T14:15:15;9.90;99.90
71142;DHT22;58808;59.366;17.970;2022-10-22T14:17:44;9.90;99.90
71142;DHT22;58808;59.366;17.970;2022-10-22T14:20:26;9.90;99.90
71142;DHT22;58808;59.366;17.970;2022-10-22T14:22:53;9.90;99.90
71142;DHT22;58808;59.366;17.970;2022-10-22T14:25:21;10.00;99.90
71142;DHT22;58808;59.366;17.970;2022-10-22T14:27:51;10.00;99.90
71142;DHT22;58808;59.366;17.970;2022-10-22T14:30:24;9.90;99.90
71142;DHT22;58808;59.366;17.970;2022-10-22T14:32:52;9.90;99.90
71142;DHT22;58808;59.366;17.970;2022-10-22T14:35:21;10.00;99.90
71142;DHT22;58808;59.366;17.970;2022-10-22T14:37:47;9.90;99.90
71142;DHT22;58808;59.366;17.970;2022-10-22T14:40:15;9.90;99.90
71142;DHT22;58808;59.366;17.970;2022-10-22T14:42:43;9.90;99.90
71142;DHT22;58808;59.366;17.970;2022-10-22T14:45:24;9.90;99.90
71142;DHT22;58808;59.366;17.970;2022-10-22T14:47:51;9.90;99.90
71142;DHT22;58808;59.366;17.970;2022-10-22T14:50:25;9.90;99.90
71142;DHT22;58808;59.366;17.970;2022-10-22T14:52:51;9.90;99.90
71142;DHT22;58808;59.366;17.970;2022-10-22T14:55:18;9.90;99.90
71142;DHT22;58808;59.366;17.970;2022-10-22T14:57:59;9.90;99.90
71142;DHT22;58808;59.366;17.970;2022-10-22T15:00:25;9.90;99.90
71142;DHT22;58808;59.366;17.970;2022-10-22T15:02:51;9.90;99.90
71142;DHT22;58808;59.366;17.970;2022-10-22T15:05:17;9.90;99.90
71142;DHT22;58808;59.366;17.970;2022-10-22T15:07:43;9.90;99.90
71142;DHT22;58808;59.366;17.970;2022-10-22T15:10:09;9.90;99.90
71142;DHT22;58808;59.366;17.970;2022-10-22T15:12:35;9.90;99.90
71142;DHT22;58808;59.366;17.970;2022-10-22T15:15:01;9.90;99.90
71142;DHT22;58808;59.366;17.970;2022-10-22T15:17:27;9.90;99.90
71142;DHT22;58808;59.366;17.970;2022-10-22T15:19:52;9.90;99.90
71142;DHT22;58808;59.366;17.970;2022-10-22T15:22:21;9.90;99.90
71142;DHT22;58808;59.366;17.970;2022-10-22T15:24:47;9.90;99.90
71142;DHT22;58808;59.366;17.970;2022-10-22T15:27:14;9.90;99.90
71142;DHT22;58808;59.366;17.970;2022-10-22T15:29:41;9.90;99.90
71142;DHT22;58808;59.366;17.970;2022-10-22T15:32:07;9.90;99.90
71142;DHT22;58808;59.366;17.970;2022-10-22T15:34:37;9.80;99.90
71142;DHT22;58808;59.366;17.970;2022-10-22T15:37:05;9.80;99.90
71142;DHT22;58808;59.366;17.970;2022-10-22T15:39:31;9.80;99.90
71142;DHT22;58808;59.366;17.970;2022-10-22T15:41:57;9.80;99.90
71142;DHT22;58808;59.366;17.970;2022-10-22T15:44:25;9.80;99.90
71142;DHT22;58808;59.366;17.970;2022-10-22T15:46:51;9.80;99.90
71142;DHT22;58808;59.366;17.970;2022-10-22T15:49:20;9.80;99.90
71142;DHT22;58808;59.366;17.970;2022-10-22T15:51:46;9.80;99.90
71142;DHT22;58808;59.366;17.970;2022-10-22T15:54:16;9.70;99.90
71142;DHT22;58808;59.366;17.970;2022-10-22T15:56:43;9.70;99.90
71142;DHT22;58808;59.366;17.970;2022-10-22T15:59:10;9.70;99.90
71142;DHT22;58808;59.366;17.970;2022-10-22T16:01:36;9.70;99.90
71142;DHT22;58808;59.366;17.970;2022-10-22T16:04:03;9.70;99.90
71142;DHT22;58808;59.366;17.970;2022-10-22T16:06:34;9.70;99.90
71142;DHT22;58808;59.366;17.970;2022-10-22T16:09:02;9.70;99.90
71142;DHT22;58808;59.366;17.970;2022-10-22T16:11:29;9.70;99.90
71142;DHT22;58808;59.366;17.970;2022-10-22T16:13:56;9.70;99.90
71142;DHT22;58808;59.366;17.970;2022-10-22T16:16:23;9.70;99.90
71142;DHT22;58808;59.366;17.970;2022-10-22T16:18:50;9.70;99.90
71142;DHT22;58808;59.366;17.970;2022-10-22T16:21:17;9.70;99.90
71142;DHT22;58808;59.366;17.970;2022-10-22T16:23:43;9.70;99.90
71142;DHT22;58808;59.366;17.970;2022-10-22T16:26:09;9.70;99.90
71142;DHT22;58808;59.366;17.970;2022-10-22T16:28:35;9.70;99.90
71142;DHT22;58808;59.366;17.970;2022-10-22T16:31:06;9.60;99.90
71142;DHT22;58808;59.366;17.970;2022-10-22T16:33:34;9.60;99.90
71142;DHT22;58808;59.366;17.970;2022-10-22T16:36:00;9.60;99.90
71142;DHT22;58808;59.366;17.970;2022-10-22T16:38:26;9.60;99.90
71142;DHT22;58808;59.366;17.970;2022-10-22T16:40:52;9.60;99.90
71142;DHT22;58808;59.366;17.970;2022-10-22T16:43:18;9.60;99.90
71142;DHT22;58808;59.366;17.970;2022-10-22T16:45:50;9.70;99.90
71142;DHT22;58808;59.366;17.970;2022-10-22T16:48:17;9.70;99.90
71142;DHT22;58808;59.366;17.970;2022-10-22T16:50:43;9.70;99.90
71142;DHT22;58808;59.366;17.970;2022-10-22T16:53:10;9.70;99.90
71142;DHT22;58808;59.366;17.970;2022-10-22T16:55:39;9.70;99.90
71142;DHT22;58808;59.366;17.970;2022-10-22T16:58:05;9.70;99.90
71142;DHT22;58808;59.366;17.970;2022-10-22T17:00:31;9.60;99.90
71142;DHT22;58808;59.366;17.970;2022-10-22T17:02:57;9.60;99.90
71142;DHT22;58808;59.366;17.970;2022-10-22T17:05:23;9.70;99.90
71142;DHT22;58808;59.366;17.970;2022-10-22T17:07:49;9.70;99.90
71142;DHT22;58808;59.366;17.970;2022-10-22T17:10:16;9.70;99.90
71142;DHT22;58808;59.366;17.970;2022-10-22T17:12:44;9.70;99.90
71142;DHT22;58808;59.366;17.970;2022-10-22T17:15:10;9.70;99.90
71142;DHT22;58808;59.366;17.970;2022-10-22T17:17:36;9.70;99.90
71142;DHT22;58808;59.366;17.970;2022-10-22T17:20:03;9.60;99.90
71142;DHT22;58808;59.366;17.970;2022-10-22T17:22:28;9.60;99.90
71142;DHT22;58808;59.366;17.970;2022-10-22T17:25:14;9.60;99.90
71142;DHT22;58808;59.366;17.970;2022-10-22T17:27:41;9.60;99.90
71142;DHT22;58808;59.366;17.970;2022-10-22T17:30:08;9.60;99.90
71142;DHT22;58808;59.366;17.970;2022-10-22T17:32:43;9.60;99.90
71142;DHT22;58808;59.366;17.970;2022-10-22T17:35:10;9.60;99.90
71142;DHT22;58808;59.366;17.970;2022-10-22T17:37:39;9.60;99.90
71142;DHT22;58808;59.366;17.970;2022-10-22T17:40:06;9.60;99.90
71142;DHT22;58808;59.366;17.970;2022-10-22T17:42:32;9.60;99.90
71142;DHT22;58808;59.366;17.970;2022-10-22T17:44:58;9.60;99.90
71142;DHT22;58808;59.366;17.970;2022-10-22T17:47:23;9.60;99.90